Time;durP1;ratioP1;P1;durP2;ratioP2;P2;SDS_P1;SDS_P2;PMS_P1;PMS_P2;Temp;Humidity;BMP_temperature;BMP_pressure;BME280_temperature;BME280_humidity;BME280_pressure;Samples;Min_cycle;Max_cycle;Signal;HPM_P1;HPM_P2
2022/08/18 00:00:13;;;;;;;12.60;10.50;;;;;;;23.32;54.34;100168.74;1787025;79;20903;-76
2022/08/18 00:02:40;;;;;;;18.62;10.78;;;;;;;23.31;54.42;100163.02;1779905;80;20991;-76
2022/08/18 00:05:08;;;;;;;13.30;10.40;;;;;;;23.28;54.49;100159.45;1793905;79;20975;-76
2022/08/18 00:07:34;;;;;;;13.40;10.23;;;;;;;23.27;54.60;100159.70;1794896;79;21011;-76
2022/08/18 00:10:00;;;;;;;14.40;10.78;;;;;;;23.25;54.67;100159.97;1754368;81;20995;-76
2022/08/18 00:12:34;;;;;;;14.50;10.70;;;;;;;23.24;54.73;100159.68;1749084;82;21007;-76
2022/08/18 00:15:03;;;;;;;12.45;10.82;;;;;;;23.22;54.82;100163.75;1776324;80;22331;-76
2022/08/18 00:17:28;;;;;;;13.38;10.18;;;;;;;23.17;54.91;100160.44;1777208;80;21011;-76
2022/08/18 00:19:54;;;;;;;16.07;11.20;;;;;;;23.15;55.01;100159.85;1742602;81;21042;-76
2022/08/18 00:22:21;;;;;;;11.95;10.72;;;;;;;23.10;55.08;100165.27;1749373;81;20980;-76
2022/08/18 00:24:51;;;;;;;16.93;12.15;;;;;;;23.08;55.17;100158.45;1753188;81;21618;-76
2022/08/18 00:27:20;;;;;;;16.10;10.75;;;;;;;23.04;55.29;100160.86;1742336;82;21454;-76
2022/08/18 00:29:47;;;;;;;14.23;11.55;;;;;;;23.00;55.38;100162.98;1770723;80;21724;-76
2022/08/18 00:32:17;;;;;;;17.67;11.75;;;;;;;22.96;55.49;100160.48;1774938;79;20987;-76
2022/08/18 00:34:43;;;;;;;17.90;11.90;;;;;;;22.92;55.61;100160.18;1781744;80;20986;-76
2022/08/18 00:37:09;;;;;;;18.45;12.47;;;;;;;22.89;55.71;100159.34;1749408;82;21050;-76
2022/08/18 00:39:35;;;;;;;13.22;11.05;;;;;;;22.87;55.82;100165.55;1774574;79;21189;-76
2022/08/18 00:42:13;;;;;;;16.73;12.53;;;;;;;22.86;55.89;100155.24;1728194;82;21109;-76
2022/08/18 00:44:39;;;;;;;17.37;12.18;;;;;;;22.88;55.98;100163.13;1746970;81;21091;-76
2022/08/18 00:47:06;;;;;;;17.73;12.13;;;;;;;22.84;56.06;100166.07;1748680;81;20955;-76
2022/08/18 00:49:32;;;;;;;15.53;11.73;;;;;;;22.83;56.17;100159.02;1734340;82;21085;-76
2022/08/18 00:51:58;;;;;;;13.50;11.95;;;;;;;22.83;56.22;100161.73;1750893;81;21817;-76
2022/08/18 00:54:28;;;;;;;13.98;11.60;;;;;;;22.78;56.31;100163.84;1748782;81;21602;-76
2022/08/18 00:56:57;;;;;;;15.55;11.38;;;;;;;22.75;56.41;100159.45;1739222;81;21496;-76
2022/08/18 00:59:48;;;;;;;19.17;11.68;;;;;;;22.73;56.51;100158.91;1738461;82;21114;-76
2022/08/18 01:02:23;;;;;;;18.07;11.30;;;;;;;22.70;56.59;100156.13;1741039;82;21020;-76
2022/08/18 01:04:55;;;;;;;18.15;10.72;;;;;;;22.68;56.65;100151.50;1749412;80;21274;-76
2022/08/18 01:07:44;;;;;;;12.03;10.35;;;;;;;22.68;56.73;100149.32;1761405;79;21019;-76
2022/08/18 01:10:08;;;;;;;14.53;10.78;;;;;;;22.65;56.80;100156.06;1770938;80;20995;-76
2022/08/18 01:12:36;;;;;;;12.82;10.88;;;;;;;22.62;56.86;100148.95;1733901;81;21066;-76
2022/08/18 01:15:02;;;;;;;12.68;10.80;;;;;;;22.60;56.96;100142.94;1778742;80;21020;-76
2022/08/18 01:23:17;;;;;;;12.90;11.60;;;;;;;22.49;57.20;100141.17;1747517;81;21448;-76
2022/08/18 01:28:33;;;;;;;17.30;11.43;;;;;;;22.44;57.37;100146.56;1744746;82;21016;-76
2022/08/18 01:30:59;;;;;;;18.25;12.00;;;;;;;22.48;57.43;100144.98;1768762;80;21652;-76
2022/08/18 01:33:31;;;;;;;14.80;11.43;;;;;;;22.48;57.47;100137.66;1759449;80;20960;-76
2022/08/18 01:35:56;;;;;;;15.43;12.28;;;;;;;22.47;57.51;100136.00;1764550;80;20999;-76
2022/08/18 01:38:22;;;;;;;15.00;11.43;;;;;;;22.50;57.58;100134.66;1730281;82;21102;-76
2022/08/18 01:40:48;;;;;;;16.20;11.28;;;;;;;22.50;57.60;100121.08;1777436;80;20995;-76
2022/08/18 01:43:14;;;;;;;19.12;11.93;;;;;;;22.48;57.65;100124.59;1738643;82;21506;-76
2022/08/18 01:45:41;;;;;;;14.00;11.40;;;;;;;22.48;57.70;100126.78;1773245;80;21004;-76
2022/08/18 01:48:07;;;;;;;16.45;11.43;;;;;;;22.47;57.71;100116.98;1776156;80;21023;-76
2022/08/18 01:50:34;;;;;;;12.63;11.33;;;;;;;22.45;57.76;100121.03;1740021;81;21036;-76
2022/08/18 01:53:01;;;;;;;17.55;11.73;;;;;;;22.40;57.82;100114.46;1777835;80;20999;-76
2022/08/18 01:55:27;;;;;;;16.87;11.48;;;;;;;22.35;57.90;100113.03;1752599;81;21514;-76
2022/08/18 01:57:54;;;;;;;16.80;10.72;;;;;;;22.32;57.96;100104.03;1760901;80;21051;-76
2022/08/18 02:00:20;;;;;;;16.95;11.30;;;;;;;22.33;58.00;100107.04;1760069;80;21030;-76
2022/08/18 02:02:47;;;;;;;14.75;10.82;;;;;;;22.33;58.06;100111.12;1759508;81;21481;-77
2022/08/18 02:05:17;;;;;;;13.40;10.70;;;;;;;22.33;58.12;100105.69;1751661;80;21097;-76
2022/08/18 02:07:43;;;;;;;15.80;10.60;;;;;;;22.34;58.15;100104.59;1760835;80;21980;-76
2022/08/18 02:10:12;;;;;;;13.13;11.05;;;;;;;22.35;58.21;100104.05;1738403;81;21058;-76
2022/08/18 02:12:39;;;;;;;12.45;11.15;;;;;;;22.34;58.24;100112.73;1751094;81;21507;-76
2022/08/18 02:15:06;;;;;;;17.80;11.90;;;;;;;22.33;58.26;100113.84;1741020;80;21452;-76
2022/08/18 02:17:38;;;;;;;13.40;11.08;;;;;;;22.31;58.32;100111.06;1714390;81;21035;-76
2022/08/18 02:20:06;;;;;;;13.05;10.72;;;;;;;22.30;58.36;100118.95;1720653;82;21169;-76
2022/08/18 02:22:32;;;;;;;15.48;12.35;;;;;;;22.26;58.42;100113.20;1723882;82;21527;-76
2022/08/18 02:24:58;;;;;;;14.70;11.35;;;;;;;22.22;58.48;100116.14;1736799;82;21711;-76
2022/08/18 02:27:26;;;;;;;16.45;11.68;;;;;;;22.18;58.54;100115.00;1719649;81;21022;-76
2022/08/18 02:29:52;;;;;;;15.48;11.75;;;;;;;22.12;58.61;100117.38;1739970;81;21050;-76
2022/08/18 02:32:18;;;;;;;20.97;11.57;;;;;;;22.07;58.72;100115.94;1745041;81;20995;-76
2022/08/18 02:34:44;;;;;;;17.90;11.90;;;;;;;22.00;58.81;100112.58;1761059;80;21008;-76
2022/08/18 02:37:10;;;;;;;15.10;11.78;;;;;;;21.93;58.92;100116.02;1747994;81;21035;-76
2022/08/18 02:39:36;;;;;;;16.32;10.65;;;;;;;21.86;59.05;100119.42;1740029;82;21089;-77
2022/08/18 02:42:06;;;;;;;15.45;11.70;;;;;;;21.77;59.21;100114.97;1748985;81;20991;-76
2022/08/18 02:44:32;;;;;;;16.37;11.30;;;;;;;21.71;59.38;100115.15;1726097;82;21107;-76
2022/08/18 02:46:58;;;;;;;15.43;11.50;;;;;;;21.63;59.57;100118.28;1728932;81;21612;-76
2022/08/18 02:49:24;;;;;;;14.45;11.38;;;;;;;21.55;59.74;100121.41;1742656;80;21739;-76
2022/08/18 02:51:51;;;;;;;23.25;12.18;;;;;;;21.48;59.94;100111.25;1744524;81;21551;-76
2022/08/18 02:54:21;;;;;;;12.93;11.20;;;;;;;21.41;60.10;100114.97;1732948;82;21109;-76
2022/08/18 02:56:50;;;;;;;19.00;12.23;;;;;;;21.36;60.29;100110.80;1718504;82;21275;-76
2022/08/18 02:59:23;;;;;;;15.60;12.07;;;;;;;21.30;60.44;100106.38;1708294;83;21063;-76
2022/08/18 03:01:52;;;;;;;19.60;13.65;;;;;;;21.26;60.61;100107.94;1702163;83;21453;-76
2022/08/18 03:04:24;;;;;;;21.68;13.50;;;;;;;21.18;60.77;100111.05;1715409;83;21568;-76
2022/08/18 03:06:50;;;;;;;14.45;12.95;;;;;;;21.14;60.94;100124.01;1714403;83;21030;-76
2022/08/18 03:09:17;;;;;;;17.42;12.93;;;;;;;21.08;61.09;100123.05;1710134;83;21590;-76
2022/08/18 03:11:44;;;;;;;16.73;13.30;;;;;;;21.03;61.26;100122.98;1713072;82;21015;-76
2022/08/18 03:14:10;;;;;;;15.53;12.70;;;;;;;20.97;61.41;100129.36;1715758;83;21015;-76
2022/08/18 03:16:39;;;;;;;17.10;11.95;;;;;;;20.90;61.57;100127.33;1711479;83;21023;-76
2022/08/18 03:19:05;;;;;;;17.73;12.70;;;;;;;20.78;61.75;100127.94;1709260;83;21066;-77
2022/08/18 03:21:34;;;;;;;18.17;12.70;;;;;;;20.69;62.01;100128.05;1708495;83;21031;-76
2022/08/18 03:23:59;;;;;;;17.32;12.50;;;;;;;20.66;62.25;100133.93;1712085;83;21020;-76
2022/08/18 03:26:26;;;;;;;18.10;12.90;;;;;;;20.62;62.42;100134.95;1708619;83;21086;-76
2022/08/18 03:28:53;;;;;;;17.60;12.55;;;;;;;20.56;62.66;100132.39;1713610;83;21039;-76
2022/08/18 03:31:21;;;;;;;18.90;12.40;;;;;;;20.53;62.83;100135.58;1712169;83;21019;-76
2022/08/18 03:33:48;;;;;;;17.50;13.00;;;;;;;20.53;63.02;100137.77;1696963;83;21085;-76
2022/08/18 03:36:19;;;;;;;22.22;13.72;;;;;;;20.53;63.15;100136.94;1701336;83;21165;-76
2022/08/18 03:38:45;;;;;;;21.73;13.85;;;;;;;20.52;63.32;100136.64;1702456;83;21071;-76
2022/08/18 03:41:14;;;;;;;18.17;13.03;;;;;;;20.51;63.46;100141.27;1713421;83;21012;-76
2022/08/18 03:43:41;;;;;;;14.95;13.20;;;;;;;20.50;63.61;100139.61;1696978;83;21073;-76
2022/08/18 03:46:09;;;;;;;23.50;13.65;;;;;;;20.50;63.75;100145.55;1715381;83;21112;-76
2022/08/18 03:48:38;;;;;;;20.73;14.03;;;;;;;20.49;63.87;100141.19;1713451;83;21023;-76
2022/08/18 03:51:08;;;;;;;18.07;13.93;;;;;;;20.47;63.99;100148.75;1714982;83;21469;-76
2022/08/18 03:53:34;;;;;;;;;;;;;;;20.43;64.09;100153.30;1717802;83;21551;-76
2022/08/18 03:56:00;;;;;;;17.02;13.75;;;;;;;20.40;64.21;100155.13;1709888;82;20187;-76
2022/08/18 03:58:26;;;;;;;20.17;15.03;;;;;;;20.35;64.30;100155.02;1712587;83;21213;-76
2022/08/18 04:00:52;;;;;;;20.60;15.00;;;;;;;20.34;64.41;100157.95;1709787;83;21123;-76
2022/08/18 04:03:19;;;;;;;20.68;15.55;;;;;;;20.37;64.50;100169.13;1709827;83;21075;-76
2022/08/18 04:05:46;;;;;;;22.65;16.45;;;;;;;20.37;64.58;100163.71;1702289;83;21047;-76
2022/08/18 04:08:12;;;;;;;23.40;16.20;;;;;;;20.40;64.69;100163.27;1712513;83;21056;-76
2022/08/18 04:10:38;;;;;;;22.60;16.57;;;;;;;20.43;64.79;100164.13;1700956;83;21178;-76
2022/08/18 04:13:04;;;;;;;24.95;15.93;;;;;;;20.47;64.87;100160.41;1714229;83;20987;-76
2022/08/18 04:15:31;;;;;;;22.17;15.95;;;;;;;20.51;64.95;100158.05;1699017;83;21531;-77
2022/08/18 04:18:00;;;;;;;24.87;17.40;;;;;;;20.54;65.04;100154.85;1709766;83;21046;-77
2022/08/18 04:20:25;;;;;;;20.60;17.95;;;;;;;20.49;65.13;100158.27;1708080;83;21538;-76
2022/08/18 04:22:52;;;;;;;31.60;16.40;;;;;;;20.51;65.25;100164.81;1715927;83;21830;-76
2022/08/18 04:25:18;;;;;;;24.25;16.50;;;;;;;20.55;65.33;100160.02;1701601;83;21051;-76
2022/08/18 04:27:44;;;;;;;20.88;17.07;;;;;;;20.59;65.42;100153.58;1697359;83;21071;-76
2022/08/18 04:30:11;;;;;;;22.55;16.37;;;;;;;20.65;65.45;100153.98;1698957;83;21102;-76
2022/08/18 04:32:38;;;;;;;23.80;16.85;;;;;;;20.69;65.53;100155.16;1711255;83;21047;-76
2022/08/18 04:35:06;;;;;;;19.57;16.87;;;;;;;20.72;65.55;100157.38;1711181;83;21815;-76
2022/08/18 04:37:32;;;;;;;21.52;15.93;;;;;;;20.76;65.62;100163.41;1712307;83;21012;-76
2022/08/18 04:39:58;;;;;;;19.48;17.10;;;;;;;20.79;65.64;100160.77;1710053;83;20880;-76
2022/08/18 04:42:25;;;;;;;27.17;17.87;;;;;;;20.78;65.73;100169.95;1711252;83;21501;-76
2022/08/18 04:44:51;;;;;;;21.60;16.93;;;;;;;20.79;65.83;100166.19;1715661;83;21011;-76
2022/08/18 04:47:17;;;;;;;21.55;16.62;;;;;;;20.88;65.87;100170.14;1705548;83;22121;-76
2022/08/18 04:49:43;;;;;;;28.38;19.87;;;;;;;20.98;65.85;100166.79;1710015;83;21629;-76
2022/08/18 04:54:53;;;;;;;31.07;24.07;;;;;;;21.13;65.86;100165.22;1705234;83;21027;-76
2022/08/18 04:57:20;;;;;;;26.95;22.20;;;;;;;21.30;65.79;100159.27;1719904;82;21015;-76
2022/08/18 04:59:48;;;;;;;30.55;21.00;;;;;;;21.49;65.78;100153.61;1721364;82;21206;-76
2022/08/18 05:02:14;;;;;;;26.40;20.85;;;;;;;21.68;65.70;100161.77;1737170;81;21552;-76
2022/08/18 05:04:41;;;;;;;23.83;18.07;;;;;;;21.86;65.59;100168.30;1742770;82;21404;-76
2022/08/18 05:07:10;;;;;;;20.15;18.07;;;;;;;22.05;65.44;100161.55;1781636;80;21008;-76
2022/08/18 05:09:37;;;;;;;24.90;18.60;;;;;;;22.19;65.27;100163.37;1775584;80;21026;-76
2022/08/18 05:12:05;;;;;;;28.77;17.42;;;;;;;22.32;65.09;100163.81;1728232;82;21184;-76
2022/08/18 05:14:32;;;;;;;35.08;19.27;;;;;;;22.45;65.00;100168.59;1775636;80;21051;-76
2022/08/18 05:16:59;;;;;;;27.02;19.48;;;;;;;22.48;64.89;100161.30;1738135;82;20976;-76
2022/08/18 05:19:25;;;;;;;22.27;18.02;;;;;;;22.54;64.80;100163.81;1748538;81;20991;-76
2022/08/18 05:21:53;;;;;;;28.67;19.20;;;;;;;22.61;64.70;100163.62;1773856;79;21008;-76
2022/08/18 05:24:20;;;;;;;21.80;17.77;;;;;;;22.67;64.53;100171.60;1758559;79;21265;-76
2022/08/18 05:26:47;;;;;;;20.75;16.70;;;;;;;22.75;64.43;100165.72;1749517;82;21611;-76
2022/08/18 05:29:14;;;;;;;21.27;16.35;;;;;;;22.81;64.35;100165.22;1743759;80;21004;-76
2022/08/18 05:31:41;;;;;;;20.92;15.50;;;;;;;22.91;64.25;100162.61;1742469;81;21098;-77
2022/08/18 05:34:07;;;;;;;20.48;16.40;;;;;;;23.03;64.11;100161.11;1749536;81;21027;-77
2022/08/18 05:36:51;;;;;;;17.40;15.55;;;;;;;23.21;63.99;100164.82;1780786;80;22233;-77
2022/08/18 05:39:28;;;;;;;24.63;15.75;;;;;;;23.33;63.76;100162.20;1758859;80;20952;-76
2022/08/18 05:42:07;;;;;;;22.90;15.13;;;;;;;23.39;63.63;100162.55;1735185;82;21058;-77
2022/08/18 05:44:43;;;;;;;23.32;14.93;;;;;;;23.51;63.42;100162.91;1744232;82;21508;-77
2022/08/18 05:47:26;;;;;;;21.68;16.15;;;;;;;23.65;63.31;100161.39;1778127;80;21416;-77
2022/08/18 05:49:52;;;;;;;24.12;15.15;;;;;;;23.87;63.10;100158.84;1771595;80;21574;-77
2022/08/18 05:52:53;;;;;;;15.98;14.33;;;;;;;24.04;62.84;100160.55;1743604;81;20988;-77
2022/08/18 05:58:27;;;;;;;19.45;13.75;;;;;;;24.34;62.42;100158.86;1750067;80;21057;-77
2022/08/18 06:00:55;;;;;;;19.92;14.58;;;;;;;24.53;62.08;100157.00;1750083;81;21050;-76
2022/08/18 06:03:34;;;;;;;18.55;13.58;;;;;;;24.61;61.74;100160.04;1749463;81;21784;-76
2022/08/18 06:06:07;;;;;;;19.07;13.08;;;;;;;24.69;61.48;100158.70;1754189;81;20955;-77
2022/08/18 06:08:38;;;;;;;19.15;13.18;;;;;;;24.80;61.16;100159.02;1733504;80;21014;-77
2022/08/18 06:11:04;;;;;;;14.78;12.60;;;;;;;24.91;60.91;100163.41;1743635;81;21019;-76
2022/08/18 06:13:35;;;;;;;16.15;12.80;;;;;;;25.02;60.63;100158.25;1750966;81;21510;-77
2022/08/18 06:16:24;;;;;;;18.27;13.35;;;;;;;25.11;60.36;100158.01;1756229;81;21832;-77
2022/08/18 06:19:02;;;;;;;;;;;;;;;25.20;60.11;100160.46;1755927;81;20979;-77
2022/08/18 06:22:09;;;;;;;19.48;14.00;;;;;;;25.26;59.82;100163.46;1754981;81;20204;-77
2022/08/18 06:24:46;;;;;;;18.20;13.93;;;;;;;25.32;59.60;100162.39;1744799;81;20995;-77
2022/08/18 06:27:20;;;;;;;15.40;11.83;;;;;;;25.40;59.34;100167.04;1756346;81;21494;-77
2022/08/18 06:30:16;;;;;;;20.77;12.68;;;;;;;25.51;59.22;100167.34;1756278;81;21429;-77
2022/08/18 06:32:53;;;;;;;15.32;12.80;;;;;;;25.63;59.01;100176.06;1744989;81;20963;-77
2022/08/18 06:35:40;;;;;;;15.93;12.20;;;;;;;26.01;58.76;100167.80;1750750;81;21046;-77
2022/08/18 06:38:39;;;;;;;22.40;12.98;;;;;;;26.33;58.42;100165.02;1741857;81;21019;-77
2022/08/18 06:41:19;;;;;;;13.18;11.78;;;;;;;26.70;58.01;100167.88;1740079;81;21366;-76
2022/08/18 06:44:05;;;;;;;15.05;11.55;;;;;;;26.94;57.45;100168.86;1756917;81;21833;-77
2022/08/18 06:46:44;;;;;;;15.03;12.90;;;;;;;27.07;57.07;100172.32;1756806;81;20943;-76
2022/08/18 06:49:15;;;;;;;15.78;12.07;;;;;;;27.26;56.77;100169.73;1756801;81;21051;-77
2022/08/18 06:51:41;;;;;;;18.35;12.18;;;;;;;27.61;56.44;100170.02;1755864;81;21295;-76
2022/08/18 06:54:22;;;;;;;16.75;12.00;;;;;;;27.81;55.91;100172.56;1756800;81;21011;-76
2022/08/18 06:56:51;;;;;;;15.35;11.22;;;;;;;27.99;55.45;100169.09;1745020;80;21829;-75
2022/08/18 06:59:29;;;;;;;21.42;10.72;;;;;;;27.95;54.79;100179.00;1745365;81;21094;-77
2022/08/18 07:02:27;;;;;;;13.85;11.53;;;;;;;27.97;54.32;100180.10;1741940;81;20949;-77
2022/08/18 07:05:05;;;;;;;13.60;10.72;;;;;;;28.02;54.03;100174.55;1741473;81;21059;-77
2022/08/18 07:07:38;;;;;;;24.00;11.48;;;;;;;28.27;53.77;100175.13;1756838;81;21468;-77
2022/08/18 07:10:12;;;;;;;13.78;10.93;;;;;;;28.67;53.43;100177.14;1754852;81;21723;-80
2022/08/18 07:12:38;;;;;;;12.45;11.20;;;;;;;29.01;52.95;100177.75;1743517;80;21504;-80
2022/08/18 07:15:06;;;;;;;22.13;11.65;;;;;;;29.13;52.48;100178.69;1745916;80;20911;-80
2022/08/18 07:17:36;;;;;;;17.05;11.15;;;;;;;29.13;51.99;100179.47;1750821;80;21073;-82
2022/08/18 07:20:24;;;;;;;17.07;10.08;;;;;;;28.86;51.50;100172.47;1760537;80;21475;-81
2022/08/18 07:22:59;;;;;;;22.98;10.50;;;;;;;28.83;51.34;100173.06;1771561;80;21710;-82
2022/08/18 07:25:42;;;;;;;15.05;10.23;;;;;;;28.83;51.08;100168.95;1753155;81;21436;-81
2022/08/18 07:28:27;;;;;;;20.05;11.33;;;;;;;28.93;50.96;100171.55;1724604;81;20943;-80
2022/08/18 07:30:55;;;;;;;17.75;11.28;;;;;;;29.04;50.63;100179.90;1751463;80;21045;-80
2022/08/18 07:33:23;;;;;;;16.40;10.93;;;;;;;29.20;50.35;100175.80;1699281;83;21015;-80
2022/08/18 07:35:56;;;;;;;13.68;10.50;;;;;;;29.37;50.16;100169.81;1751179;80;21887;-80
2022/08/18 07:38:32;;;;;;;14.45;9.85;;;;;;;29.59;49.80;100163.09;1741822;81;21027;-80
2022/08/18 07:41:07;;;;;;;11.75;10.35;;;;;;;29.77;49.46;100171.03;1740508;81;20900;-80
2022/08/18 07:43:44;;;;;;;14.03;10.68;;;;;;;30.00;49.02;100175.60;1759060;80;20999;-81
2022/08/18 07:46:16;;;;;;;23.55;10.43;;;;;;;30.33;48.64;100171.39;1721932;81;20942;-82
2022/08/18 07:48:42;;;;;;;17.30;9.48;;;;;;;30.57;48.24;100172.02;1744996;80;22492;-80
2022/08/18 07:51:32;;;;;;;16.40;10.30;;;;;;;30.87;47.95;100167.21;1748605;81;21629;-81
2022/08/18 07:54:07;;;;;;;11.70;8.95;;;;;;;31.23;47.61;100165.04;1777607;80;21490;-81
2022/08/18 07:57:11;;;;;;;9.73;8.70;;;;;;;31.38;47.08;100161.36;1743650;81;21002;-80
2022/08/18 07:59:51;;;;;;;15.88;9.63;;;;;;;31.48;46.68;100157.52;1737478;81;21446;-80
2022/08/18 08:02:41;;;;;;;10.13;8.10;;;;;;;31.56;46.07;100167.84;1763468;80;21855;-79
2022/08/18 08:05:28;;;;;;;13.18;8.70;;;;;;;31.55;45.50;100179.98;1729537;81;21007;-80
2022/08/18 08:08:47;;;;;;;15.75;8.83;;;;;;;31.54;44.85;100176.97;1756427;81;21006;-80
2022/08/18 08:11:33;;;;;;;11.03;8.93;;;;;;;31.56;44.35;100176.11;1735234;81;21042;-80
2022/08/18 08:14:10;;;;;;;9.60;8.38;;;;;;;31.52;43.95;100182.00;1699919;83;20950;-80
2022/08/18 08:16:57;;;;;;;14.10;8.00;;;;;;;31.61;43.73;100184.23;1689686;84;22467;-80
2022/08/18 08:20:07;;;;;;;10.25;8.28;;;;;;;31.60;43.44;100182.03;1694458;83;21079;-80
2022/08/18 08:23:17;;;;;;;12.93;8.00;;;;;;;31.65;43.09;100185.24;1689146;84;21079;-80
2022/08/18 08:26:04;;;;;;;13.55;7.58;;;;;;;31.42;42.80;100190.49;1673457;84;21062;-80
2022/08/18 08:28:50;;;;;;;14.03;8.43;;;;;;;31.37;42.62;100197.49;1688803;83;21132;-80
2022/08/18 08:31:50;;;;;;;15.72;8.03;;;;;;;31.36;42.31;100193.09;1696033;83;22429;-80
2022/08/18 08:34:28;;;;;;;11.30;7.50;;;;;;;31.29;42.12;100194.92;1689093;84;21042;-79
2022/08/18 08:37:02;;;;;;;10.53;8.00;;;;;;;31.29;41.74;100198.23;1703416;83;21062;-80
2022/08/18 08:39:44;;;;;;;12.88;7.42;;;;;;;31.31;41.78;100200.95;1711902;83;21034;-81
2022/08/18 08:42:20;;;;;;;13.03;8.05;;;;;;;31.40;41.65;100202.38;1663798;83;21067;-79
2022/08/18 08:44:58;;;;;;;14.85;7.50;;;;;;;31.52;41.59;100194.41;1710761;83;22672;-79
2022/08/18 08:47:33;;;;;;;15.88;8.13;;;;;;;31.62;41.57;100195.52;1717094;83;21075;-78
2022/08/18 08:50:15;;;;;;;11.55;7.70;;;;;;;31.73;41.47;100195.52;1712048;83;21015;-79
2022/08/18 08:53:04;;;;;;;11.97;8.35;;;;;;;31.78;41.35;100195.94;1719360;83;21464;-79
2022/08/18 08:55:36;;;;;;;7.42;6.65;;;;;;;31.85;41.22;100201.25;1723075;83;21491;-78
2022/08/18 08:58:32;;;;;;;16.97;8.33;;;;;;;31.84;40.80;100202.41;1719532;82;22443;-79
2022/08/18 09:00:58;;;;;;;7.90;6.65;;;;;;;31.78;40.46;100199.51;1715323;83;21048;-79
2022/08/18 09:03:47;;;;;;;11.80;7.60;;;;;;;31.85;40.14;100190.22;1715253;83;21063;-79
2022/08/18 09:06:46;;;;;;;12.07;7.12;;;;;;;31.87;39.75;100199.02;1715364;83;21079;-79
2022/08/18 09:09:18;;;;;;;;;;;;;;;31.72;39.41;100198.58;1717719;83;20916;-79
2022/08/18 09:11:53;;;;;;;10.78;7.33;;;;;;;31.73;39.45;100190.00;1715641;83;21888;-79
2022/08/18 09:14:34;;;;;;;10.35;7.75;;;;;;;31.91;39.34;100186.22;1713999;83;21004;-79
2022/08/18 09:17:48;;;;;;;9.80;7.03;;;;;;;31.81;39.16;100182.91;1714081;83;21070;-79
2022/08/18 09:20:53;;;;;;;7.95;7.12;;;;;;;31.89;39.08;100188.46;1715504;83;21079;-79
2022/08/18 09:23:31;;;;;;;9.68;6.85;;;;;;;31.77;38.59;100188.25;1694623;83;21008;-79
2022/08/18 09:25:59;;;;;;;13.35;7.35;;;;;;;31.70;38.63;100183.16;1715636;83;25742;-79
2022/08/18 09:28:34;;;;;;;11.90;6.50;;;;;;;31.93;38.60;100183.95;1687265;83;20943;-79
2022/08/18 09:31:09;;;;;;;10.23;7.10;;;;;;;32.00;38.50;100189.83;1715445;83;21031;-79
2022/08/18 09:34:00;;;;;;;35.98;7.55;;;;;;;32.13;38.29;100190.31;1714759;82;21034;-79
2022/08/18 09:37:03;;;;;;;11.85;7.15;;;;;;;32.14;38.08;100185.05;1712541;83;21106;-79
2022/08/18 09:42:43;;;;;;;13.75;6.67;;;;;;;32.49;37.96;100185.98;1691087;83;20978;-79
2022/08/18 09:45:32;;;;;;;10.63;7.35;;;;;;;32.48;37.60;100186.30;1684769;83;21007;-79
2022/08/18 09:48:28;;;;;;;7.95;7.25;;;;;;;32.41;37.55;100180.42;1704913;83;21059;-79
2022/08/18 09:51:19;;;;;;;9.08;6.30;;;;;;;32.58;37.58;100183.27;1708596;83;21027;-79
2022/08/18 09:53:51;;;;;;;8.90;6.70;;;;;;;32.89;37.41;100177.09;1700368;83;21870;-79
2022/08/18 09:56:44;;;;;;;11.93;6.47;;;;;;;32.90;36.91;100183.44;1715122;83;21055;-79
2022/08/18 09:59:10;;;;;;;10.48;6.08;;;;;;;32.83;36.59;100165.92;1628065;87;21134;-79
2022/08/18 10:01:38;;;;;;;7.83;6.90;;;;;;;32.90;36.29;100162.71;1703180;82;20975;-79
2022/08/18 10:04:24;;;;;;;8.30;6.72;;;;;;;32.84;36.17;100153.75;1734023;82;21411;-79
2022/08/18 10:06:50;;;;;;;14.13;7.40;;;;;;;32.97;36.16;100143.09;1733884;82;22587;-79
2022/08/18 10:09:43;;;;;;;23.77;7.28;;;;;;;33.07;36.18;100146.95;1733966;82;21054;-79
2022/08/18 10:12:34;;;;;;;9.10;7.10;;;;;;;33.11;36.06;100144.34;1734107;82;22161;-79
2022/08/18 10:15:41;;;;;;;8.48;6.47;;;;;;;33.08;36.00;100147.17;1733839;82;21014;-79
2022/08/18 10:18:24;;;;;;;10.93;6.53;;;;;;;33.05;35.72;100148.39;1742987;82;20912;-79
2022/08/18 10:21:26;;;;;;;9.28;5.97;;;;;;;32.99;35.53;100142.22;1734008;82;22507;-79
2022/08/18 10:24:08;;;;;;;;;;;;;;;32.96;35.31;100140.68;1735500;81;21037;-79
2022/08/18 10:26:40;;;;;;;14.00;6.37;;;;;;;32.95;34.96;100125.23;1733830;82;20148;-79
2022/08/18 10:29:29;;;;;;;7.67;6.47;;;;;;;32.84;34.94;100120.59;1734084;82;20967;-79
2022/08/18 10:32:01;;;;;;;10.38;6.55;;;;;;;32.79;34.93;100109.72;1733542;81;21018;-79
2022/08/18 10:34:52;;;;;;;8.93;6.65;;;;;;;32.89;34.86;100102.48;1734084;82;21877;-79
2022/08/18 10:37:38;;;;;;;11.20;7.70;;;;;;;32.86;34.75;100100.94;1733841;82;21527;-79
2022/08/18 10:40:12;;;;;;;22.48;7.60;;;;;;;32.94;34.80;100092.63;1733443;82;21020;-79
2022/08/18 10:42:58;;;;;;;9.85;7.10;;;;;;;32.90;34.74;100094.41;1732968;82;21582;-79
2022/08/18 10:45:29;;;;;;;13.13;6.75;;;;;;;32.76;34.81;100093.77;1733897;82;21419;-79
2022/08/18 10:48:30;;;;;;;332.77;45.35;;;;;;;32.35;34.98;100096.12;1733888;82;21858;-79
2022/08/18 10:51:17;;;;;;;11.80;7.37;;;;;;;32.31;35.30;100093.76;1733857;82;20966;-79
2022/08/18 10:56:42;;;;;;;7.58;6.60;;;;;;;32.27;34.86;100098.30;1811497;78;22816;-79
2022/08/18 10:59:41;;;;;;;8.53;6.55;;;;;;;31.95;34.84;100101.66;1797422;79;21002;-79
2022/08/18 11:02:27;;;;;;;7.12;5.75;;;;;;;31.75;34.98;100099.47;1789592;79;21909;-79
2022/08/18 11:04:54;;;;;;;8.70;5.97;;;;;;;31.79;35.23;100095.52;1786274;78;21426;-79
2022/08/18 11:07:22;;;;;;;8.08;6.85;;;;;;;32.03;35.08;100089.84;1797806;79;21070;-79
2022/08/18 11:09:53;;;;;;;7.17;5.58;;;;;;;32.15;34.75;100090.09;1797777;79;21467;-79
2022/08/18 11:12:58;;;;;;;11.20;6.33;;;;;;;32.25;34.43;100097.25;1797699;79;21080;-79
2022/08/18 11:15:39;;;;;;;9.70;6.15;;;;;;;32.32;34.34;100084.35;1786844;80;22506;-79
2022/08/18 11:18:28;;;;;;;9.55;6.47;;;;;;;32.39;34.17;100086.07;1796486;79;20982;-79
2022/08/18 11:21:14;;;;;;;;;;;;;;;32.39;34.17;100077.79;1800384;79;20994;-79
2022/08/18 11:23:40;;;;;;;12.10;5.97;;;;;;;32.46;34.15;100079.50;1797649;79;20151;-79
2022/08/18 11:26:14;;;;;;;10.53;5.62;;;;;;;32.44;34.18;100070.15;1796433;79;20981;-79
2022/08/18 11:28:40;;;;;;;8.05;5.28;;;;;;;32.54;34.22;100075.39;1797323;79;21816;-79
2022/08/18 11:31:06;;;;;;;8.00;5.30;;;;;;;32.57;33.82;100082.20;1797657;79;20852;-79
2022/08/18 11:33:32;;;;;;;7.00;5.75;;;;;;;32.60;33.72;100074.11;1797401;79;21455;-79
2022/08/18 11:35:59;;;;;;;6.70;6.05;;;;;;;32.71;33.50;100073.79;1797407;79;20978;-80
2022/08/18 11:38:27;;;;;;;9.53;6.83;;;;;;;32.70;33.46;100074.35;1797490;79;21006;-79
2022/08/18 11:41:14;;;;;;;10.72;6.12;;;;;;;32.71;33.46;100077.37;1797725;79;21913;-79
2022/08/18 11:43:40;;;;;;;9.60;5.53;;;;;;;32.74;33.52;100051.85;1797587;79;21073;-79
2022/08/18 11:46:32;;;;;;;7.00;6.30;;;;;;;32.88;33.48;100067.69;1796791;79;21014;-79
2022/08/18 11:49:00;;;;;;;7.78;6.58;;;;;;;32.70;33.40;100063.30;1745521;79;21002;-79
2022/08/18 11:51:31;;;;;;;11.15;6.70;;;;;;;32.60;33.52;100058.11;1736642;79;20914;-79
2022/08/18 11:54:01;;;;;;;9.68;6.62;;;;;;;32.66;33.53;100063.14;1797570;79;21830;-79
2022/08/18 11:56:30;;;;;;;11.25;7.37;;;;;;;32.59;33.56;100065.58;1789215;79;20979;-79
2022/08/18 11:59:02;;;;;;;8.23;6.50;;;;;;;32.55;33.55;100062.36;1789390;79;21057;-80
2022/08/18 12:01:33;;;;;;;7.58;6.25;;;;;;;32.54;33.57;100060.76;1789213;80;21018;-79
2022/08/18 12:04:29;;;;;;;8.35;6.60;;;;;;;32.66;33.63;100058.18;1785932;80;21042;-79
2022/08/18 12:07:00;;;;;;;7.03;6.15;;;;;;;32.83;33.57;100065.67;1786772;79;21859;-79